Allentown, New Jersey
Current Conditions -  °F | °C
As of 12:58 AM on Wednesday 22 Oct 2014 (Local Time) from KWRI Reporting Station
Scattered Clouds Scattered Clouds  
Wind Chill: 54°   Ceiling: Unl
Heat Index: 54°   Visibility: 10mi
Dew Point: 53°   Wind: 7mph
Humidity: 95%   Direction: 10°N
Pressure: 29.85"   Gusts: NA
Location:  40.18°N, 74.58°W
Report Text: KWRI 220458Z AUTO 01006KT 10SM SCT095 12/12 A2985 RMK AO2 SLP111 T01230115 402100071
Loading
Personal Weather Stations






























Interactive Weather Map New forecast layout! Learn more

10-Day Weather Forecast

Advertisements
Track Severe Weather on mobile